Time;durP1;ratioP1;P1;durP2;ratioP2;P2;SDS_P1;SDS_P2;PMS_P1;PMS_P2;Temp;Humidity;BMP_temperature;BMP_pressure;BME280_temperature;BME280_humidity;BME280_pressure;Samples;Min_cycle;Max_cycle;Signal;HPM_P1;HPM_P2
2020/12/05 00:01:10;;;;;;;30.60;22.33;;;;;;;;;;5032947;28;20178;-91
2020/12/05 00:03:41;;;;;;;29.23;22.03;;;;;;;;;;5033496;28;20196;-91
2020/12/05 00:06:11;;;;;;;29.87;21.97;;;;;;;;;;5033837;28;20179;-91
2020/12/05 00:08:41;;;;;;;32.70;22.60;;;;;;;;;;5033490;28;20248;-92
2020/12/05 00:11:11;;;;;;;30.43;23.17;;;;;;;;;;5034807;28;20180;-92
2020/12/05 00:13:41;;;;;;;31.63;23.13;;;;;;;;;;5033884;28;20727;-92
2020/12/05 00:16:33;;;;;;;30.60;22.23;;;;;;;;;;5053962;28;20209;-94
2020/12/05 00:25:20;;;;;;;32.57;23.57;;;;;;;;;;5016400;28;20216;-94
2020/12/05 00:27:51;;;;;;;39.87;23.43;;;;;;;;;;4995112;28;20293;-94
2020/12/05 00:30:18;;;;;;;33.53;23.47;;;;;;;;;;5013818;28;20194;-93
2020/12/05 00:32:51;;;;;;;32.23;23.63;;;;;;;;;;5051703;28;20193;-94
2020/12/05 00:35:19;;;;;;;31.27;23.73;;;;;;;;;;5048028;28;20237;-94
2020/12/05 00:37:51;;;;;;;31.03;24.70;;;;;;;;;;5043860;28;20185;-92
2020/12/05 00:40:24;;;;;;;33.70;24.90;;;;;;;;;;5048265;28;20186;-92
2020/12/05 00:42:55;;;;;;;32.27;23.90;;;;;;;;;;5033587;28;20166;-91
2020/12/05 00:45:21;;;;;;;33.20;23.43;;;;;;;;;;5031843;28;20204;-91
2020/12/05 00:47:52;;;;;;;32.70;22.47;;;;;;;;;;5031289;28;20197;-91
2020/12/05 00:50:24;;;;;;;29.13;23.00;;;;;;;;;;5032035;28;20170;-92
2020/12/05 00:52:55;;;;;;;34.40;23.90;;;;;;;;;;5031537;28;20208;-92
2020/12/05 00:55:23;;;;;;;31.83;24.37;;;;;;;;;;5032742;28;20198;-92
2020/12/05 00:57:53;;;;;;;32.20;23.73;;;;;;;;;;5032579;28;20173;-92
2020/12/05 01:00:25;;;;;;;35.90;24.60;;;;;;;;;;5032871;28;20208;-92
2020/12/05 01:02:55;;;;;;;32.70;23.70;;;;;;;;;;5032149;28;20175;-92
2020/12/05 01:05:25;;;;;;;31.83;22.57;;;;;;;;;;5031531;28;20173;-91
2020/12/05 01:07:58;;;;;;;35.83;24.73;;;;;;;;;;5030890;28;20201;-91
2020/12/05 01:10:29;;;;;;;34.07;23.97;;;;;;;;;;5030938;28;20255;-92
2020/12/05 01:13:01;;;;;;;32.90;23.47;;;;;;;;;;5031322;28;20176;-91
2020/12/05 01:15:32;;;;;;;33.40;23.23;;;;;;;;;;5031796;28;20188;-92
2020/12/05 01:18:05;;;;;;;32.43;23.17;;;;;;;;;;5031888;28;20188;-91
2020/12/05 01:20:36;;;;;;;31.13;22.90;;;;;;;;;;5031624;28;20192;-91
2020/12/05 01:23:08;;;;;;;30.73;23.07;;;;;;;;;;5031427;28;20217;-92
2020/12/05 01:25:41;;;;;;;31.37;22.37;;;;;;;;;;5031040;28;20731;-91
2020/12/05 01:28:11;;;;;;;31.53;22.83;;;;;;;;;;5030856;28;20213;-91
2020/12/05 01:30:41;;;;;;;34.30;23.27;;;;;;;;;;5046394;28;20173;-93
2020/12/05 01:33:10;;;;;;;30.87;23.23;;;;;;;;;;5054434;28;20184;-93
2020/12/05 01:35:40;;;;;;;29.90;22.73;;;;;;;;;;5039631;28;20199;-92
2020/12/05 01:38:11;;;;;;;33.10;23.87;;;;;;;;;;5039299;28;20199;-92
2020/12/05 01:40:41;;;;;;;31.37;21.93;;;;;;;;;;5040217;28;20692;-93
2020/12/05 01:43:11;;;;;;;36.50;23.80;;;;;;;;;;5042480;28;20189;-93
2020/12/05 01:45:41;;;;;;;33.60;22.47;;;;;;;;;;5046679;28;20257;-93
2020/12/05 01:48:11;;;;;;;31.53;22.67;;;;;;;;;;5045389;28;20218;-93
2020/12/05 01:50:42;;;;;;;32.50;23.60;;;;;;;;;;5044661;28;20178;-93
2020/12/05 01:53:22;;;;;;;32.30;23.00;;;;;;;;;;5048579;28;20175;-93
2020/12/05 01:55:54;;;;;;;35.30;22.43;;;;;;;;;;5049232;28;20157;-93
2020/12/05 01:58:27;;;;;;;30.67;23.23;;;;;;;;;;5049159;28;20198;-93
2020/12/05 02:00:59;;;;;;;35.07;23.83;;;;;;;;;;5051183;28;20170;-92
2020/12/05 02:03:30;;;;;;;36.17;24.57;;;;;;;;;;5044423;28;20177;-93
2020/12/05 02:06:01;;;;;;;35.80;24.70;;;;;;;;;;5030883;28;20645;-92
2020/12/05 02:08:40;;;;;;;31.73;22.83;;;;;;;;;;5030962;28;20209;-92
2020/12/05 02:11:11;;;;;;;33.53;23.87;;;;;;;;;;5031481;28;20168;-90
2020/12/05 02:13:40;;;;;;;32.80;23.33;;;;;;;;;;5030405;28;20180;-91
2020/12/05 02:16:10;;;;;;;32.60;23.70;;;;;;;;;;5042048;28;20174;-93
2020/12/05 02:18:40;;;;;;;36.33;25.60;;;;;;;;;;5046057;28;20227;-93
2020/12/05 02:21:11;;;;;;;36.23;23.97;;;;;;;;;;5044327;28;20183;-93
2020/12/05 02:23:40;;;;;;;31.17;23.00;;;;;;;;;;5046409;28;20166;-93
2020/12/05 02:26:11;;;;;;;33.53;23.20;;;;;;;;;;5047386;28;20184;-94
2020/12/05 02:28:42;;;;;;;36.10;25.87;;;;;;;;;;5044765;28;20268;-93
2020/12/05 02:31:11;;;;;;;36.47;23.83;;;;;;;;;;5047291;28;20177;-93
2020/12/05 02:33:41;;;;;;;32.63;23.17;;;;;;;;;;5039680;28;20174;-92
2020/12/05 02:36:11;;;;;;;37.00;25.70;;;;;;;;;;5037330;28;20185;-93
2020/12/05 02:38:51;;;;;;;38.53;24.23;;;;;;;;;;5036171;28;20205;-93
2020/12/05 02:41:25;;;;;;;37.33;25.00;;;;;;;;;;5035495;28;20189;-93
2020/12/05 02:43:59;;;;;;;35.90;24.57;;;;;;;;;;5034689;28;20174;-92
2020/12/05 02:46:27;;;;;;;34.93;23.57;;;;;;;;;;5034210;28;20177;-93
2020/12/05 02:49:01;;;;;;;36.27;25.27;;;;;;;;;;5033798;28;20709;-93
2020/12/05 02:51:35;;;;;;;41.03;25.13;;;;;;;;;;5033625;28;20193;-93
2020/12/05 02:54:10;;;;;;;34.63;24.33;;;;;;;;;;5033049;28;20178;-93
2020/12/05 02:56:47;;;;;;;38.47;24.90;;;;;;;;;;5033915;28;20181;-93
2020/12/05 02:59:19;;;;;;;34.10;24.10;;;;;;;;;;5037543;28;20210;-92
2020/12/05 03:01:48;;;;;;;39.20;26.80;;;;;;;;;;5037009;28;20235;-93
2020/12/05 03:04:19;;;;;;;37.17;26.47;;;;;;;;;;5037875;28;20195;-92
2020/12/05 03:06:51;;;;;;;41.17;26.10;;;;;;;;;;5036804;28;20205;-92
2020/12/05 03:09:22;;;;;;;37.23;25.37;;;;;;;;;;5037468;28;20276;-93
2020/12/05 03:11:54;;;;;;;40.17;25.13;;;;;;;;;;5036982;28;20177;-93
2020/12/05 03:14:25;;;;;;;39.87;27.00;;;;;;;;;;5037221;28;20189;-93
2020/12/05 03:16:52;;;;;;;39.97;27.03;;;;;;;;;;5036932;28;20257;-92
2020/12/05 03:19:23;;;;;;;42.90;27.20;;;;;;;;;;5036465;28;20197;-92
2020/12/05 03:21:49;;;;;;;38.87;26.00;;;;;;;;;;5037271;28;20193;-93
2020/12/05 03:24:21;;;;;;;37.30;25.80;;;;;;;;;;5038054;28;20177;-93
2020/12/05 03:26:52;;;;;;;40.40;26.23;;;;;;;;;;5039810;28;20289;-92
2020/12/05 03:29:24;;;;;;;38.33;25.70;;;;;;;;;;5037752;28;20198;-93
2020/12/05 03:32:06;;;;;;;36.30;24.27;;;;;;;;;;5037092;28;20574;-93
2020/12/05 03:34:32;;;;;;;39.60;26.97;;;;;;;;;;5037048;28;20177;-92
2020/12/05 03:37:03;;;;;;;36.43;26.03;;;;;;;;;;5036252;28;20531;-92
2020/12/05 03:39:34;;;;;;;36.50;26.37;;;;;;;;;;5035912;28;20694;-93
2020/12/05 03:42:00;;;;;;;42.87;28.17;;;;;;;;;;5036769;28;20184;-93
2020/12/05 03:44:33;;;;;;;43.83;26.73;;;;;;;;;;5036269;28;20216;-93
2020/12/05 03:47:01;;;;;;;41.60;25.33;;;;;;;;;;5036091;28;20233;-93
2020/12/05 03:49:32;;;;;;;42.23;27.73;;;;;;;;;;5036433;28;20217;-92
2020/12/05 03:52:09;;;;;;;40.23;27.50;;;;;;;;;;5036805;28;20256;-93
2020/12/05 03:54:41;;;;;;;40.23;27.20;;;;;;;;;;5035967;28;20168;-93
2020/12/05 03:57:11;;;;;;;42.87;27.43;;;;;;;;;;5035662;28;20256;-92
2020/12/05 03:59:41;;;;;;;40.20;27.57;;;;;;;;;;5036222;28;20211;-93
2020/12/05 04:02:11;;;;;;;41.83;27.77;;;;;;;;;;5035831;28;20185;-92
2020/12/05 04:04:41;;;;;;;41.57;28.30;;;;;;;;;;5035907;28;20303;-93
2020/12/05 04:07:11;;;;;;;41.97;28.50;;;;;;;;;;5035982;28;20682;-93
2020/12/05 04:09:40;;;;;;;38.20;27.87;;;;;;;;;;5035250;28;20197;-92
2020/12/05 04:12:10;;;;;;;41.50;29.07;;;;;;;;;;5036030;28;20231;-94
2020/12/05 04:14:40;;;;;;;44.57;29.80;;;;;;;;;;5036222;28;20177;-93
2020/12/05 04:17:16;;;;;;;42.77;28.70;;;;;;;;;;5035654;28;20187;-93
2020/12/05 04:19:47;;;;;;;45.57;28.13;;;;;;;;;;5035095;28;20295;-93
2020/12/05 04:22:20;;;;;;;43.57;29.83;;;;;;;;;;5036233;28;20260;-92
2020/12/05 04:24:50;;;;;;;37.53;27.63;;;;;;;;;;5036306;28;20268;-92
2020/12/05 04:27:26;;;;;;;48.73;30.43;;;;;;;;;;5036005;28;20571;-92
2020/12/05 04:29:57;;;;;;;41.50;29.73;;;;;;;;;;5036346;28;20676;-93
2020/12/05 04:32:32;;;;;;;39.90;27.93;;;;;;;;;;5035638;28;20210;-92
2020/12/05 04:35:04;;;;;;;42.67;27.80;;;;;;;;;;5035697;28;20172;-92
2020/12/05 04:37:39;;;;;;;37.70;26.60;;;;;;;;;;5036124;28;20178;-92
2020/12/05 04:40:11;;;;;;;41.53;27.87;;;;;;;;;;5035804;28;20209;-92
2020/12/05 04:42:53;;;;;;;42.37;27.77;;;;;;;;;;5035257;28;20207;-92
2020/12/05 04:45:26;;;;;;;41.03;27.80;;;;;;;;;;5035085;28;20243;-93
2020/12/05 04:47:59;;;;;;;41.87;29.10;;;;;;;;;;5035273;28;20213;-92
2020/12/05 04:50:29;;;;;;;41.53;27.90;;;;;;;;;;5066389;22;20718;-84
2020/12/05 04:53:09;;;;;;;43.13;27.77;;;;;;;;;;5055503;28;20164;-84
2020/12/05 04:55:41;;;;;;;46.23;29.63;;;;;;;;;;5055631;28;20258;-84
2020/12/05 04:58:20;;;;;;;51.27;30.30;;;;;;;;;;5055305;28;20242;-84
2020/12/05 05:00:58;;;;;;;45.97;28.70;;;;;;;;;;5055787;28;20196;-84
2020/12/05 05:03:26;;;;;;;42.37;29.67;;;;;;;;;;5055181;28;20652;-84
2020/12/05 05:05:56;;;;;;;46.53;27.97;;;;;;;;;;5055438;28;20206;-84
2020/12/05 05:08:29;;;;;;;41.97;28.17;;;;;;;;;;5055143;28;20215;-84
2020/12/05 05:11:11;;;;;;;41.67;28.43;;;;;;;;;;5055190;28;20608;-84
2020/12/05 05:13:53;;;;;;;46.77;29.30;;;;;;;;;;5053998;28;20245;-84
2020/12/05 05:16:24;;;;;;;45.27;30.57;;;;;;;;;;5055319;28;20207;-84
2020/12/05 05:18:57;;;;;;;46.57;29.80;;;;;;;;;;5054904;28;20215;-84
2020/12/05 05:21:43;;;;;;;46.97;30.97;;;;;;;;;;5052568;28;20176;-84
2020/12/05 05:24:17;;;;;;;44.90;29.00;;;;;;;;;;5054242;28;20181;-84
2020/12/05 05:26:48;;;;;;;45.60;30.23;;;;;;;;;;5054977;28;20601;-84
2020/12/05 05:29:29;;;;;;;39.40;29.00;;;;;;;;;;5054930;28;20668;-84
2020/12/05 05:32:02;;;;;;;43.63;30.10;;;;;;;;;;5055003;28;20685;-84
2020/12/05 05:34:33;;;;;;;42.60;29.37;;;;;;;;;;5053494;28;20558;-84
2020/12/05 05:37:12;;;;;;;47.93;30.90;;;;;;;;;;5054653;28;20210;-84
2020/12/05 05:39:56;;;;;;;47.60;28.70;;;;;;;;;;5054964;28;20200;-84
2020/12/05 05:42:35;;;;;;;46.77;29.93;;;;;;;;;;5055060;28;20183;-84
2020/12/05 05:45:24;;;;;;;48.10;29.40;;;;;;;;;;5054375;28;20206;-84
2020/12/05 05:47:57;;;;;;;43.77;29.20;;;;;;;;;;5054659;28;20196;-84
2020/12/05 05:50:35;;;;;;;50.43;32.80;;;;;;;;;;5053104;28;20635;-83
2020/12/05 05:53:08;;;;;;;42.97;31.27;;;;;;;;;;5054489;28;20179;-84
2020/12/05 05:55:48;;;;;;;44.63;30.63;;;;;;;;;;5053293;28;20542;-84
2020/12/05 05:58:25;;;;;;;44.73;30.63;;;;;;;;;;5053112;28;20182;-84
2020/12/05 06:00:58;;;;;;;43.97;31.00;;;;;;;;;;5054813;28;20197;-84
2020/12/05 06:03:31;;;;;;;42.73;29.93;;;;;;;;;;5054479;28;20175;-84
2020/12/05 06:06:05;;;;;;;44.63;31.30;;;;;;;;;;5053927;28;20556;-84
2020/12/05 06:08:37;;;;;;;48.40;33.10;;;;;;;;;;5054059;28;20676;-84
2020/12/05 06:11:15;;;;;;;46.47;30.83;;;;;;;;;;5053706;28;20205;-84
2020/12/05 06:13:43;;;;;;;43.83;31.93;;;;;;;;;;5052999;28;20167;-84
2020/12/05 06:16:16;;;;;;;43.33;32.10;;;;;;;;;;5054136;28;20212;-84
2020/12/05 06:18:49;;;;;;;46.23;32.50;;;;;;;;;;5054084;28;20204;-84
2020/12/05 06:21:18;;;;;;;46.10;29.13;;;;;;;;;;5054441;28;20251;-84
2020/12/05 06:23:57;;;;;;;48.10;32.03;;;;;;;;;;5054400;28;20177;-84
2020/12/05 06:26:32;;;;;;;47.70;29.10;;;;;;;;;;5054100;28;20168;-84
2020/12/05 06:29:05;;;;;;;51.60;32.50;;;;;;;;;;5054324;28;20224;-84
2020/12/05 06:31:41;;;;;;;46.13;29.53;;;;;;;;;;5054023;28;20160;-83
2020/12/05 06:34:13;;;;;;;45.97;30.40;;;;;;;;;;5053994;28;20206;-84
2020/12/05 06:36:42;;;;;;;46.57;30.53;;;;;;;;;;5052587;28;20176;-84
2020/12/05 06:39:11;;;;;;;44.90;29.53;;;;;;;;;;5053577;28;20200;-84
2020/12/05 06:41:40;;;;;;;53.67;33.37;;;;;;;;;;5054385;28;20181;-83
2020/12/05 06:44:14;;;;;;;44.40;30.30;;;;;;;;;;5053632;28;20203;-83
2020/12/05 06:47:02;;;;;;;47.23;31.63;;;;;;;;;;5053730;28;20175;-84
2020/12/05 06:49:41;;;;;;;45.93;30.57;;;;;;;;;;5052303;28;20222;-84
2020/12/05 06:52:26;;;;;;;44.23;30.17;;;;;;;;;;5053605;28;20190;-84
2020/12/05 06:54:59;;;;;;;48.17;30.73;;;;;;;;;;5052393;28;20177;-84
2020/12/05 06:57:31;;;;;;;49.07;31.87;;;;;;;;;;5052851;28;20168;-84
2020/12/05 07:00:12;;;;;;;48.10;32.00;;;;;;;;;;5052242;28;20203;-84
2020/12/05 07:02:53;;;;;;;50.80;32.17;;;;;;;;;;5053709;28;20232;-84
2020/12/05 07:05:27;;;;;;;47.23;31.93;;;;;;;;;;5052359;28;20556;-84
2020/12/05 07:08:00;;;;;;;48.27;32.87;;;;;;;;;;5053386;28;20564;-84
2020/12/05 07:10:54;;;;;;;49.90;32.57;;;;;;;;;;5052010;28;20196;-84
2020/12/05 07:13:25;;;;;;;47.77;32.63;;;;;;;;;;5053608;28;20167;-84
2020/12/05 07:15:54;;;;;;;46.83;33.13;;;;;;;;;;5053525;28;20172;-84
2020/12/05 07:18:29;;;;;;;43.97;31.23;;;;;;;;;;5052150;28;20263;-84
2020/12/05 07:20:59;;;;;;;48.77;32.57;;;;;;;;;;5052044;28;20184;-84
2020/12/05 07:23:31;;;;;;;45.10;31.97;;;;;;;;;;5052117;28;20186;-84
2020/12/05 07:25:58;;;;;;;47.83;33.43;;;;;;;;;;5051889;28;20213;-84
2020/12/05 07:28:28;;;;;;;45.47;32.27;;;;;;;;;;5052018;28;20199;-84
2020/12/05 07:31:01;;;;;;;49.50;32.47;;;;;;;;;;5053950;28;20155;-84
2020/12/05 07:33:35;;;;;;;50.33;34.30;;;;;;;;;;5053385;28;20568;-84
2020/12/05 07:36:11;;;;;;;47.07;34.10;;;;;;;;;;5051947;28;20266;-84
2020/12/05 07:38:41;;;;;;;45.70;32.37;;;;;;;;;;5052901;28;20180;-84
2020/12/05 07:41:10;;;;;;;51.10;33.57;;;;;;;;;;5053106;28;20191;-83
2020/12/05 07:43:40;;;;;;;47.30;31.23;;;;;;;;;;5051888;28;20180;-84
2020/12/05 07:46:11;;;;;;;50.07;35.20;;;;;;;;;;5055521;28;20544;-84
2020/12/05 07:48:44;;;;;;;46.10;32.63;;;;;;;;;;5055206;28;20212;-84
2020/12/05 07:51:15;;;;;;;45.60;33.50;;;;;;;;;;5057082;28;20527;-84
2020/12/05 07:53:49;;;;;;;53.20;34.30;;;;;;;;;;5056447;28;20177;-85
2020/12/05 07:56:21;;;;;;;48.17;31.60;;;;;;;;;;5055363;28;20178;-84
2020/12/05 07:58:55;;;;;;;49.03;33.07;;;;;;;;;;5056551;28;20197;-84
2020/12/05 08:01:34;;;;;;;48.27;34.07;;;;;;;;;;5055253;28;20292;-84
2020/12/05 08:04:06;;;;;;;49.17;32.57;;;;;;;;;;5056506;28;20177;-84
2020/12/05 08:06:40;;;;;;;45.23;32.83;;;;;;;;;;5056347;28;20177;-84
2020/12/05 08:09:18;;;;;;;47.23;32.23;;;;;;;;;;5055468;28;20213;-84
2020/12/05 08:11:50;;;;;;;45.90;31.57;;;;;;;;;;5056537;28;20202;-84
2020/12/05 08:14:21;;;;;;;45.40;33.23;;;;;;;;;;5056222;28;20232;-84
2020/12/05 08:16:53;;;;;;;44.67;32.67;;;;;;;;;;5056167;28;20185;-84
2020/12/05 08:19:24;;;;;;;51.23;33.67;;;;;;;;;;5054957;28;20205;-84
2020/12/05 08:21:55;;;;;;;52.20;34.03;;;;;;;;;;5056417;28;20282;-84
2020/12/05 08:24:25;;;;;;;49.33;34.13;;;;;;;;;;5056116;28;20636;-84
2020/12/05 08:26:51;;;;;;;45.87;32.97;;;;;;;;;;5055705;28;20195;-84
2020/12/05 08:29:22;;;;;;;47.83;33.13;;;;;;;;;;5055841;28;20198;-84
2020/12/05 08:31:54;;;;;;;48.57;33.33;;;;;;;;;;5055832;28;20179;-84
2020/12/05 08:34:35;;;;;;;46.03;33.17;;;;;;;;;;5056112;28;20183;-84
2020/12/05 08:37:04;;;;;;;44.33;33.50;;;;;;;;;;5055759;28;20253;-84
2020/12/05 08:39:36;;;;;;;47.83;32.60;;;;;;;;;;5055903;28;20198;-84
2020/12/05 08:42:05;;;;;;;50.53;34.57;;;;;;;;;;5055540;28;20186;-84
2020/12/05 08:44:37;;;;;;;51.23;34.50;;;;;;;;;;5054378;28;20177;-84
2020/12/05 08:47:07;;;;;;;57.87;34.63;;;;;;;;;;5055656;28;20210;-84
2020/12/05 08:49:40;;;;;;;49.90;35.20;;;;;;;;;;5055377;28;20215;-84
2020/12/05 08:52:11;;;;;;;49.43;34.13;;;;;;;;;;5055631;28;20176;-84
2020/12/05 08:54:50;;;;;;;49.77;35.03;;;;;;;;;;5055425;28;20561;-84
2020/12/05 08:57:23;;;;;;;51.77;35.80;;;;;;;;;;5054575;28;20175;-84
2020/12/05 09:00:01;;;;;;;49.37;34.63;;;;;;;;;;5054158;28;20208;-84
2020/12/05 09:02:37;;;;;;;47.27;36.27;;;;;;;;;;5055979;28;20197;-84
2020/12/05 09:05:08;;;;;;;51.87;36.03;;;;;;;;;;5055488;28;20546;-84
2020/12/05 09:07:39;;;;;;;55.00;36.80;;;;;;;;;;5053657;28;20203;-84
2020/12/05 09:10:21;;;;;;;55.87;37.80;;;;;;;;;;5053852;28;20207;-84
2020/12/05 09:12:56;;;;;;;47.80;32.83;;;;;;;;;;5055383;28;20223;-84
2020/12/05 09:15:26;;;;;;;57.23;37.67;;;;;;;;;;5055229;28;20165;-84
2020/12/05 09:18:01;;;;;;;55.20;35.87;;;;;;;;;;5055190;28;20185;-84
2020/12/05 09:20:31;;;;;;;49.03;32.27;;;;;;;;;;5053543;28;20254;-84
2020/12/05 09:23:05;;;;;;;51.33;35.67;;;;;;;;;;5053548;28;20180;-84
2020/12/05 09:25:36;;;;;;;52.87;35.63;;;;;;;;;;5055312;28;20253;-84
2020/12/05 09:28:11;;;;;;;53.40;35.90;;;;;;;;;;5053463;28;20205;-84
2020/12/05 09:30:37;;;;;;;53.93;37.40;;;;;;;;;;5053650;28;20200;-84
2020/12/05 09:33:15;;;;;;;48.37;32.03;;;;;;;;;;5055064;28;20213;-84
2020/12/05 09:35:45;;;;;;;51.97;35.23;;;;;;;;;;5055352;28;20176;-84
2020/12/05 09:38:15;;;;;;;53.10;34.07;;;;;;;;;;5055007;28;20658;-84
2020/12/05 09:40:45;;;;;;;55.40;35.23;;;;;;;;;;5054609;28;20200;-84
2020/12/05 09:43:15;;;;;;;52.87;33.50;;;;;;;;;;5053171;28;20708;-84
2020/12/05 09:45:45;;;;;;;52.93;35.37;;;;;;;;;;5054447;28;20176;-84
2020/12/05 09:48:11;;;;;;;50.30;34.20;;;;;;;;;;5054668;28;20332;-84
2020/12/05 09:50:38;;;;;;;54.03;34.40;;;;;;;;;;5055716;28;20205;-84
2020/12/05 09:53:07;;;;;;;53.70;35.40;;;;;;;;;;5053374;28;20181;-84
2020/12/05 09:55:35;;;;;;;50.60;33.60;;;;;;;;;;5057503;28;20180;-84
2020/12/05 09:58:04;;;;;;;49.00;34.83;;;;;;;;;;5054368;28;20637;-84
2020/12/05 10:00:34;;;;;;;51.30;32.67;;;;;;;;;;5054755;28;20556;-84
2020/12/05 10:03:05;;;;;;;48.60;34.17;;;;;;;;;;5054984;28;20180;-84
2020/12/05 10:05:39;;;;;;;49.13;32.67;;;;;;;;;;5054112;28;20180;-84
2020/12/05 10:08:09;;;;;;;49.70;34.37;;;;;;;;;;5052400;28;20201;-84
2020/12/05 10:10:44;;;;;;;50.00;34.43;;;;;;;;;;5053935;28;20226;-84
2020/12/05 10:13:10;;;;;;;53.23;35.27;;;;;;;;;;5054429;28;20612;-84
2020/12/05 10:15:41;;;;;;;53.50;34.17;;;;;;;;;;5054148;28;20262;-84
2020/12/05 10:18:09;;;;;;;51.83;34.03;;;;;;;;;;5052646;28;20182;-84
2020/12/05 10:20:39;;;;;;;49.67;33.67;;;;;;;;;;5052571;28;20201;-84
2020/12/05 10:23:11;;;;;;;53.27;32.87;;;;;;;;;;5053932;28;20176;-84
2020/12/05 10:25:39;;;;;;;51.47;32.80;;;;;;;;;;5052682;28;20600;-84
2020/12/05 10:28:08;;;;;;;54.00;33.73;;;;;;;;;;5054125;28;20204;-84
2020/12/05 10:30:37;;;;;;;50.40;34.73;;;;;;;;;;5053903;28;20555;-84
2020/12/05 10:33:09;;;;;;;50.47;33.13;;;;;;;;;;5052544;28;20555;-84
2020/12/05 10:35:40;;;;;;;50.57;32.67;;;;;;;;;;5053824;28;20585;-84
2020/12/05 10:38:11;;;;;;;44.30;32.70;;;;;;;;;;5053932;28;20181;-84
2020/12/05 10:40:41;;;;;;;43.67;30.10;;;;;;;;;;5053584;28;20196;-84
2020/12/05 10:43:11;;;;;;;45.27;30.93;;;;;;;;;;5053779;28;20701;-84
2020/12/05 10:45:41;;;;;;;42.40;31.10;;;;;;;;;;5053716;28;20255;-83
2020/12/05 10:48:08;;;;;;;51.03;33.00;;;;;;;;;;5053621;28;20294;-84
2020/12/05 10:50:34;;;;;;;42.73;30.23;;;;;;;;;;5076448;22;20232;-91
2020/12/05 10:53:01;;;;;;;46.87;32.07;;;;;;;;;;5053571;28;20592;-91
2020/12/05 10:55:27;;;;;;;52.63;32.60;;;;;;;;;;5053634;28;20218;-90
2020/12/05 10:57:56;;;;;;;39.57;25.33;;;;;;;;;;5054783;28;20620;-90
2020/12/05 11:00:27;;;;;;;44.13;29.63;;;;;;;;;;5053101;28;20686;-89
2020/12/05 11:02:59;;;;;;;44.60;31.27;;;;;;;;;;5053030;28;20184;-91
2020/12/05 11:05:29;;;;;;;45.03;30.47;;;;;;;;;;5053765;28;20174;-90
2020/12/05 11:07:55;;;;;;;41.87;30.43;;;;;;;;;;5053552;28;20206;-90
2020/12/05 11:10:27;;;;;;;46.00;31.30;;;;;;;;;;5053371;28;20544;-90
2020/12/05 11:12:54;;;;;;;47.37;32.40;;;;;;;;;;5053075;28;20165;-90
2020/12/05 11:15:25;;;;;;;50.13;31.50;;;;;;;;;;5053211;28;20172;-91
2020/12/05 11:17:52;;;;;;;47.07;31.47;;;;;;;;;;5053467;28;20170;-89
2020/12/05 11:20:25;;;;;;;43.60;32.70;;;;;;;;;;5054956;28;20264;-88
2020/12/05 11:22:52;;;;;;;44.37;29.67;;;;;;;;;;5056528;28;20185;-88
2020/12/05 11:25:18;;;;;;;41.03;30.53;;;;;;;;;;5055786;28;20186;-88
2020/12/05 11:27:45;;;;;;;42.23;30.27;;;;;;;;;;5056487;28;20205;-89
2020/12/05 11:30:12;;;;;;;40.80;30.87;;;;;;;;;;5056539;28;20312;-88
2020/12/05 11:32:38;;;;;;;39.70;28.70;;;;;;;;;;5056642;28;20665;-91
2020/12/05 11:35:06;;;;;;;45.13;30.37;;;;;;;;;;5056727;28;20177;-91
2020/12/05 11:37:32;;;;;;;38.37;29.30;;;;;;;;;;5056487;28;20183;-90
2020/12/05 11:39:59;;;;;;;47.20;29.87;;;;;;;;;;5056298;28;20250;-90
2020/12/05 11:42:35;;;;;;;37.03;26.60;;;;;;;;;;5056444;28;20235;-91
2020/12/05 11:45:05;;;;;;;34.57;26.47;;;;;;;;;;5056958;28;20273;-90
2020/12/05 11:47:32;;;;;;;36.70;26.00;;;;;;;;;;5057016;28;20214;-90
2020/12/05 11:50:01;;;;;;;37.93;27.90;;;;;;;;;;5056267;28;20584;-91
2020/12/05 11:52:32;;;;;;;37.43;27.43;;;;;;;;;;5056502;28;20177;-90
2020/12/05 11:55:01;;;;;;;36.63;25.37;;;;;;;;;;5056633;28;20205;-91
2020/12/05 11:57:30;;;;;;;35.60;25.60;;;;;;;;;;5056069;28;20180;-90
2020/12/05 12:00:00;;;;;;;28.20;19.43;;;;;;;;;;5056023;28;20683;-90
2020/12/05 12:02:30;;;;;;;33.50;25.90;;;;;;;;;;5055830;28;20242;-90
2020/12/05 12:05:01;;;;;;;36.70;25.67;;;;;;;;;;5056160;28;20646;-90
2020/12/05 12:07:28;;;;;;;33.50;23.43;;;;;;;;;;5055597;28;20202;-90
2020/12/05 12:10:04;;;;;;;30.80;24.60;;;;;;;;;;5055579;28;20571;-91
2020/12/05 12:12:34;;;;;;;37.83;27.13;;;;;;;;;;5055721;28;20168;-91
2020/12/05 12:15:01;;;;;;;36.57;24.07;;;;;;;;;;5055651;28;20282;-90
2020/12/05 12:17:30;;;;;;;35.60;25.90;;;;;;;;;;5055789;28;20181;-91
2020/12/05 12:19:59;;;;;;;36.00;26.77;;;;;;;;;;5055704;28;20247;-90
2020/12/05 12:22:29;;;;;;;39.57;27.13;;;;;;;;;;5055724;28;20187;-91
2020/12/05 12:24:59;;;;;;;39.90;26.63;;;;;;;;;;5055266;28;20181;-91
2020/12/05 12:27:30;;;;;;;37.93;28.57;;;;;;;;;;5056477;28;20204;-90
2020/12/05 12:29:59;;;;;;;39.93;25.67;;;;;;;;;;5054541;28;20223;-90
2020/12/05 12:32:27;;;;;;;34.97;26.20;;;;;;;;;;5054686;28;20179;-90
2020/12/05 12:34:55;;;;;;;36.40;27.50;;;;;;;;;;5054717;28;20171;-90
2020/12/05 12:37:23;;;;;;;30.87;25.83;;;;;;;;;;5055259;28;20186;-90
2020/12/05 12:39:53;;;;;;;35.10;24.00;;;;;;;;;;5054443;28;20197;-91
2020/12/05 12:42:25;;;;;;;33.47;24.37;;;;;;;;;;5055306;28;20253;-91
2020/12/05 12:44:55;;;;;;;41.17;27.83;;;;;;;;;;5054422;28;20265;-92
2020/12/05 12:50:02;;;;;;;33.30;25.67;;;;;;;;;;5055641;28;20212;-91
2020/12/05 12:52:33;;;;;;;30.50;23.57;;;;;;;;;;5054861;28;20192;-91
2020/12/05 12:55:05;;;;;;;40.27;28.87;;;;;;;;;;5054925;28;20214;-91
2020/12/05 12:57:36;;;;;;;36.30;27.13;;;;;;;;;;5054602;28;20215;-90
2020/12/05 13:00:09;;;;;;;36.60;27.47;;;;;;;;;;5054185;28;20198;-89
2020/12/05 13:02:42;;;;;;;38.70;26.63;;;;;;;;;;5054478;28;20516;-90
2020/12/05 13:05:12;;;;;;;36.83;26.00;;;;;;;;;;5054752;28;20178;-90
2020/12/05 13:07:44;;;;;;;40.00;29.47;;;;;;;;;;5054477;28;20682;-90
2020/12/05 13:10:15;;;;;;;37.67;28.33;;;;;;;;;;5053896;28;20198;-88
2020/12/05 13:12:46;;;;;;;35.53;26.27;;;;;;;;;;5053590;28;20182;-88
2020/12/05 13:15:20;;;;;;;37.63;28.47;;;;;;;;;;5053974;28;20249;-89
2020/12/05 13:17:55;;;;;;;36.97;27.90;;;;;;;;;;5054479;28;20174;-89
2020/12/05 13:20:26;;;;;;;35.63;25.73;;;;;;;;;;5055183;28;20206;-88
2020/12/05 13:22:57;;;;;;;33.93;22.13;;;;;;;;;;5054052;28;20171;-89
2020/12/05 13:25:28;;;;;;;34.10;25.97;;;;;;;;;;5053704;28;20207;-90
2020/12/05 13:27:58;;;;;;;37.03;27.97;;;;;;;;;;5054756;28;20241;-89
2020/12/05 13:30:27;;;;;;;33.17;25.43;;;;;;;;;;5053422;28;20197;-90
2020/12/05 13:32:53;;;;;;;36.47;24.50;;;;;;;;;;5053556;28;20649;-89
2020/12/05 13:35:31;;;;;;;32.67;20.93;;;;;;;;;;5054163;28;20178;-90
2020/12/05 13:38:01;;;;;;;30.53;23.63;;;;;;;;;;5054311;28;20198;-90
2020/12/05 13:40:30;;;;;;;27.93;21.60;;;;;;;;;;5054064;28;20229;-90
2020/12/05 13:43:05;;;;;;;29.03;21.83;;;;;;;;;;5052832;28;20205;-90
2020/12/05 13:45:35;;;;;;;36.17;26.47;;;;;;;;;;5053684;28;20526;-90
2020/12/05 13:48:09;;;;;;;31.73;23.80;;;;;;;;;;5054893;28;20206;-90
2020/12/05 13:50:41;;;;;;;34.80;25.50;;;;;;;;;;5053508;28;20302;-91
2020/12/05 13:53:11;;;;;;;39.33;28.03;;;;;;;;;;5053556;28;20206;-91
2020/12/05 13:55:41;;;;;;;38.93;28.03;;;;;;;;;;5053123;28;20168;-91
2020/12/05 13:58:10;;;;;;;42.93;29.70;;;;;;;;;;5053312;28;20186;-91
2020/12/05 14:00:37;;;;;;;41.63;28.80;;;;;;;;;;5053021;28;20281;-88
2020/12/05 14:03:08;;;;;;;35.33;25.30;;;;;;;;;;5053173;28;20188;-91
2020/12/05 14:05:37;;;;;;;40.40;25.27;;;;;;;;;;5053188;28;20673;-91
2020/12/05 14:08:04;;;;;;;40.67;30.03;;;;;;;;;;5053991;28;20219;-92
2020/12/05 14:10:34;;;;;;;42.90;28.30;;;;;;;;;;5055548;28;20218;-92
2020/12/05 14:13:05;;;;;;;40.87;28.20;;;;;;;;;;5054533;28;20176;-92
2020/12/05 14:15:36;;;;;;;37.43;27.40;;;;;;;;;;5054445;28;20178;-92
2020/12/05 14:18:03;;;;;;;40.23;28.83;;;;;;;;;;5056246;28;20191;-92
2020/12/05 14:20:30;;;;;;;42.67;29.00;;;;;;;;;;5054175;28;20216;-92
2020/12/05 14:23:01;;;;;;;40.97;29.37;;;;;;;;;;5054861;28;20178;-92
2020/12/05 14:25:31;;;;;;;44.63;30.03;;;;;;;;;;5054785;28;20554;-92
2020/12/05 14:27:57;;;;;;;31.93;21.73;;;;;;;;;;5054508;28;20200;-91
2020/12/05 14:30:28;;;;;;;41.50;29.23;;;;;;;;;;5053490;28;20202;-91
2020/12/05 14:32:57;;;;;;;39.20;27.77;;;;;;;;;;5053866;28;20199;-91
2020/12/05 14:35:28;;;;;;;40.23;29.77;;;;;;;;;;5057042;28;20176;-92
2020/12/05 14:37:56;;;;;;;43.33;29.60;;;;;;;;;;5057860;28;20188;-92
2020/12/05 14:40:27;;;;;;;37.07;26.83;;;;;;;;;;5055583;28;20202;-92
2020/12/05 14:42:56;;;;;;;42.03;30.87;;;;;;;;;;5053889;28;20182;-92
2020/12/05 14:45:26;;;;;;;42.53;30.50;;;;;;;;;;5053822;28;20591;-92
2020/12/05 14:48:00;;;;;;;43.33;29.73;;;;;;;;;;5053190;28;20203;-91
2020/12/05 14:50:27;;;;;;;39.27;29.00;;;;;;;;;;5054601;28;20207;-91